Time;durP1;ratioP1;P1;durP2;ratioP2;P2;SDS_P1;SDS_P2;PMS_P1;PMS_P2;Temp;Humidity;BMP_temperature;BMP_pressure;BME280_temperature;BME280_humidity;BME280_pressure;Samples;Min_cycle;Max_cycle;Signal;HPM_P1;HPM_P2
2023/03/27 00:01:53;;;;;;;8.55;6.18;;;;;;;5.36;84.45;97261.72;5071606;28;20055;-63
2023/03/27 00:04:18;;;;;;;7.47;5.50;;;;;;;5.33;84.50;97269.34;5071682;28;20131;-62
2023/03/27 00:06:44;;;;;;;6.82;5.25;;;;;;;5.26;84.13;97266.91;5071568;28;20052;-61
2023/03/27 00:09:10;;;;;;;8.40;5.53;;;;;;;5.23;83.66;97268.25;5071229;28;20043;-62
2023/03/27 00:11:36;;;;;;;8.98;5.20;;;;;;;5.20;84.26;97271.34;5070178;28;20071;-62
2023/03/27 00:14:03;;;;;;;6.60;4.50;;;;;;;5.22;83.47;97271.13;5053268;28;20056;-63
2023/03/27 00:16:29;;;;;;;7.57;4.75;;;;;;;5.22;83.48;97277.16;5071375;28;20048;-63
2023/03/27 00:18:55;;;;;;;6.97;4.72;;;;;;;5.17;83.59;97266.59;5069914;28;20048;-64
2023/03/27 00:21:21;;;;;;;8.90;4.45;;;;;;;5.24;84.18;97269.03;5070499;28;20045;-62
2023/03/27 00:23:47;;;;;;;8.23;5.47;;;;;;;5.18;83.93;97272.69;5071512;28;20139;-63
2023/03/27 00:26:14;;;;;;;6.90;4.57;;;;;;;5.13;83.51;97270.78;5069779;28;20049;-63
2023/03/27 00:28:40;;;;;;;8.48;5.30;;;;;;;5.12;83.87;97269.22;5071434;28;20417;-64
2023/03/27 00:31:10;;;;;;;7.35;5.05;;;;;;;5.14;84.71;97272.38;5052995;28;20040;-64
2023/03/27 00:33:36;;;;;;;10.02;5.82;;;;;;;5.17;84.51;97277.13;5071205;28;20090;-63
2023/03/27 00:36:02;;;;;;;8.10;5.15;;;;;;;5.17;84.07;97263.97;5070867;28;20495;-62
2023/03/27 00:38:28;;;;;;;10.82;6.13;;;;;;;5.21;83.76;97274.78;5070992;28;20050;-64
2023/03/27 00:40:54;;;;;;;10.57;6.30;;;;;;;5.27;84.34;97278.25;5069610;28;20045;-62
2023/03/27 00:43:34;;;;;;;9.93;5.78;;;;;;;5.21;83.88;97269.53;5070991;28;20048;-60
2023/03/27 00:46:23;;;;;;;10.85;6.32;;;;;;;5.20;84.75;97278.44;5069452;28;20044;-62
2023/03/27 00:48:50;;;;;;;10.20;6.20;;;;;;;5.22;84.71;97279.78;5069849;28;20123;-62
2023/03/27 00:51:17;;;;;;;10.18;6.72;;;;;;;5.25;84.06;97273.22;5070888;28;20048;-62
2023/03/27 00:53:45;;;;;;;11.85;7.13;;;;;;;5.30;84.05;97277.72;5069535;28;20044;-62
2023/03/27 00:56:11;;;;;;;11.13;6.30;;;;;;;5.29;83.82;97270.88;5069462;28;20410;-63
2023/03/27 00:58:52;;;;;;;11.90;7.10;;;;;;;5.31;83.71;97281.94;5036083;28;20044;-64
2023/03/27 01:01:19;;;;;;;12.45;7.70;;;;;;;5.31;83.83;97276.69;5052516;28;20044;-63
2023/03/27 01:03:46;;;;;;;15.30;7.80;;;;;;;5.36;84.10;97287.22;5069394;28;20436;-62
2023/03/27 01:06:13;;;;;;;14.85;8.32;;;;;;;5.35;83.17;97285.63;5070592;28;20048;-62
2023/03/27 01:08:40;;;;;;;17.25;7.68;;;;;;;5.33;83.38;97285.88;5069337;28;20037;-63
2023/03/27 01:11:31;;;;;;;15.45;7.15;;;;;;;5.34;84.04;97282.22;5052378;28;20166;-63
2023/03/27 01:14:03;;;;;;;13.82;7.57;;;;;;;5.35;83.66;97280.38;5069234;28;20179;-63
2023/03/27 01:16:51;;;;;;;14.68;6.85;;;;;;;5.36;83.07;97276.72;5070598;28;20410;-62
2023/03/27 01:19:52;;;;;;;11.65;6.55;;;;;;;5.34;83.43;97273.53;5069269;28;20052;-63
2023/03/27 01:22:39;;;;;;;16.67;7.40;;;;;;;5.31;84.10;97277.47;5069336;28;20102;-62
2023/03/27 01:25:33;;;;;;;14.07;7.80;;;;;;;5.33;83.82;97283.25;5052457;28;20044;-62
2023/03/27 01:28:40;;;;;;;13.07;7.18;;;;;;;5.35;84.00;97275.09;5070422;28;20064;-63
2023/03/27 01:31:15;;;;;;;13.20;7.18;;;;;;;5.33;83.36;97275.38;5070233;28;20044;-63
2023/03/27 01:33:56;;;;;;;11.10;6.40;;;;;;;5.25;83.92;97270.59;5069892;28;20048;-63
2023/03/27 01:36:31;;;;;;;14.88;7.40;;;;;;;5.26;84.35;97266.13;5073009;28;20061;-62
2023/03/27 01:39:17;;;;;;;14.50;7.68;;;;;;;5.25;84.22;97262.72;5056066;28;20139;-63
2023/03/27 01:41:59;;;;;;;12.70;7.15;;;;;;;5.26;84.25;97272.16;5039309;28;20497;-61
2023/03/27 01:44:39;;;;;;;17.70;7.97;;;;;;;5.27;83.27;97268.53;5039590;28;20571;-62
2023/03/27 01:47:10;;;;;;;21.48;7.93;;;;;;;5.15;84.32;97265.31;5072726;28;20135;-64
2023/03/27 01:49:40;;;;;;;14.20;7.03;;;;;;;5.16;84.96;97259.78;5072578;28;20056;-63
2023/03/27 01:52:10;;;;;;;14.67;7.63;;;;;;;5.20;84.17;97254.81;5072735;28;20037;-63
2023/03/27 01:54:42;;;;;;;15.70;8.33;;;;;;;5.17;84.69;97263.97;5056061;28;20291;-64
2023/03/27 01:57:16;;;;;;;16.73;8.07;;;;;;;5.27;85.08;97265.91;5071980;28;20044;-63
2023/03/27 01:59:46;;;;;;;30.48;7.88;;;;;;;5.25;83.86;97262.72;5072286;28;20047;-63
2023/03/27 02:02:28;;;;;;;17.60;7.63;;;;;;;5.22;83.77;97273.75;5036299;28;20470;-62
2023/03/27 02:04:58;;;;;;;20.00;7.82;;;;;;;5.19;84.82;97277.66;5055558;28;20044;-62
2023/03/27 02:07:29;;;;;;;16.13;7.22;;;;;;;5.09;84.51;97259.22;5055796;28;20498;-63
2023/03/27 02:09:59;;;;;;;15.23;6.82;;;;;;;5.20;83.99;97273.97;5039244;28;20139;-61
2023/03/27 02:12:37;;;;;;;14.93;7.28;;;;;;;5.29;84.25;97276.91;5055523;28;20518;-60
2023/03/27 02:15:10;;;;;;;20.50;8.00;;;;;;;5.22;83.87;97271.91;5055318;28;20059;-61
2023/03/27 02:18:03;;;;;;;20.67;8.00;;;;;;;5.11;84.25;97272.88;5058915;28;20194;-63
2023/03/27 02:20:34;;;;;;;20.60;6.90;;;;;;;5.18;84.54;97283.19;5073118;28;20524;-62
2023/03/27 02:23:00;;;;;;;36.65;8.23;;;;;;;5.10;83.75;97281.81;5038655;28;20105;-63
2023/03/27 02:25:31;;;;;;;22.02;6.75;;;;;;;5.13;84.11;97276.06;5071918;28;20080;-63
2023/03/27 02:28:21;;;;;;;14.52;6.47;;;;;;;5.16;83.30;97280.00;5055540;28;20552;-63
2023/03/27 02:30:47;;;;;;;48.90;8.40;;;;;;;5.18;82.71;97275.31;5071842;28;20521;-62
2023/03/27 02:33:40;;;;;;;12.82;6.20;;;;;;;5.22;83.60;97279.00;5071725;28;20123;-63
2023/03/27 02:36:34;;;;;;;23.90;7.25;;;;;;;5.22;83.86;97277.16;5055459;28;20085;-62
2023/03/27 02:39:08;;;;;;;17.63;6.55;;;;;;;5.20;83.89;97273.97;5054977;28;20052;-62
2023/03/27 02:41:39;;;;;;;12.85;6.53;;;;;;;5.22;83.48;97277.16;5073232;28;20094;-63
2023/03/27 02:44:35;;;;;;;17.08;6.75;;;;;;;5.19;83.55;97261.13;5070858;28;20418;-62
2023/03/27 02:47:07;;;;;;;14.27;6.20;;;;;;;5.26;82.79;97280.06;5055242;28;20132;-63
2023/03/27 02:49:39;;;;;;;21.33;5.95;;;;;;;5.21;82.80;97277.41;5054933;28;20048;-62
2023/03/27 02:52:32;;;;;;;25.02;7.30;;;;;;;5.10;82.79;97278.41;5072861;28;20052;-61
2023/03/27 02:55:05;;;;;;;17.30;6.15;;;;;;;5.06;83.42;97279.94;5056006;28;20501;-62
2023/03/27 02:57:38;;;;;;;22.58;6.63;;;;;;;5.01;83.64;97281.50;5054866;28;20047;-62
2023/03/27 03:00:25;;;;;;;22.30;6.80;;;;;;;4.93;83.79;97266.19;5072384;28;20060;-63
2023/03/27 03:03:19;;;;;;;20.13;6.47;;;;;;;5.00;84.07;97287.00;5043907;28;20510;-62
2023/03/27 03:05:55;;;;;;;33.05;7.10;;;;;;;5.00;83.03;97292.25;5071216;28;20051;-60
2023/03/27 03:08:20;;;;;;;45.88;9.38;;;;;;;4.88;83.73;97289.00;5054406;28;20074;-62
2023/03/27 03:10:47;;;;;;;24.45;7.35;;;;;;;4.88;83.85;97292.44;5071024;28;20134;-62
2023/03/27 03:13:14;;;;;;;51.42;8.88;;;;;;;4.87;84.18;97293.47;5057938;28;20092;-64
2023/03/27 03:15:41;;;;;;;22.25;7.00;;;;;;;4.88;84.25;97289.81;5070819;28;20096;-62
2023/03/27 03:18:07;;;;;;;49.60;9.38;;;;;;;4.83;84.41;97295.03;5037403;28;20135;-62
2023/03/27 03:20:34;;;;;;;32.60;7.88;;;;;;;4.77;83.37;97293.41;5054072;28;20087;-62
2023/03/27 03:23:03;;;;;;;22.52;7.32;;;;;;;4.71;84.13;97292.56;5053233;28;20036;-63
2023/03/27 03:25:30;;;;;;;20.77;9.98;;;;;;;4.66;84.37;97289.09;5053778;28;20516;-63
2023/03/27 03:27:58;;;;;;;158.98;15.48;;;;;;;4.59;83.99;97299.00;5070630;28;20044;-63
2023/03/27 03:30:26;;;;;;;147.13;15.10;;;;;;;4.53;83.35;97298.19;5070902;28;20044;-61
2023/03/27 03:33:13;;;;;;;36.10;8.48;;;;;;;4.59;84.03;97294.56;5053776;28;20127;-63
2023/03/27 03:35:39;;;;;;;27.73;6.78;;;;;;;4.70;83.91;97298.84;5070276;28;20059;-63
2023/03/27 03:38:14;;;;;;;30.90;6.43;;;;;;;4.74;84.16;97296.53;5070663;28;20048;-64
2023/03/27 03:40:44;;;;;;;28.13;7.13;;;;;;;4.84;84.42;97304.47;5070457;28;20448;-63
2023/03/27 03:43:10;;;;;;;50.63;7.93;;;;;;;4.76;83.14;97310.16;5071963;28;20040;-62
2023/03/27 03:45:36;;;;;;;18.73;6.50;;;;;;;4.78;83.49;97310.72;5070115;28;20049;-63
2023/03/27 03:48:02;;;;;;;18.48;6.50;;;;;;;4.76;83.41;97313.63;5069968;28;20114;-62
2023/03/27 03:50:28;;;;;;;13.60;7.05;;;;;;;4.75;83.53;97319.88;5053434;28;20064;-63
2023/03/27 03:52:54;;;;;;;22.35;6.75;;;;;;;4.80;82.90;97315.75;5070159;28;20039;-63
2023/03/27 03:55:20;;;;;;;14.27;5.40;;;;;;;4.74;82.75;97307.81;5070127;28;20501;-63
2023/03/27 03:57:49;;;;;;;17.27;5.95;;;;;;;4.73;82.76;97316.72;5049651;28;20041;-63
2023/03/27 04:00:24;;;;;;;13.82;5.70;;;;;;;4.71;82.37;97315.41;5033360;28;20135;-62
2023/03/27 04:02:53;;;;;;;16.95;5.50;;;;;;;4.63;82.54;97318.47;5049902;28;20458;-64
2023/03/27 04:05:19;;;;;;;12.82;5.50;;;;;;;4.66;82.37;97320.59;5049629;28;20037;-61
2023/03/27 04:07:50;;;;;;;11.77;6.18;;;;;;;4.66;82.63;97318.75;5049594;28;20494;-63
2023/03/27 04:10:41;;;;;;;16.17;5.45;;;;;;;4.80;81.92;97310.47;5032645;28;20148;-62
2023/03/27 04:13:16;;;;;;;10.13;4.72;;;;;;;4.86;81.11;97307.66;5032558;28;20426;-62
2023/03/27 04:15:52;;;;;;;11.25;4.90;;;;;;;4.88;80.34;97310.81;5049723;28;20552;-63
2023/03/27 04:18:39;;;;;;;10.15;4.88;;;;;;;4.93;80.91;97307.41;5066589;28;20052;-63
2023/03/27 04:21:14;;;;;;;10.60;5.38;;;;;;;5.03;80.24;97310.13;5050267;28;20099;-63
2023/03/27 04:23:41;;;;;;;10.18;4.78;;;;;;;5.07;80.43;97307.78;5049767;28;20465;-62
2023/03/27 04:26:10;;;;;;;11.82;5.80;;;;;;;5.11;79.20;97306.22;5032949;28;20053;-62
2023/03/27 04:28:54;;;;;;;12.00;5.68;;;;;;;5.03;80.08;97304.88;5051013;28;20045;-63
2023/03/27 04:31:45;;;;;;;12.52;6.05;;;;;;;5.05;79.79;97307.25;5049136;28;20469;-64
2023/03/27 04:34:29;;;;;;;12.98;6.30;;;;;;;5.10;79.84;97299.41;5051019;28;20049;-63
2023/03/27 04:37:07;;;;;;;16.10;6.90;;;;;;;5.17;79.95;97307.84;5041296;28;20539;-63
2023/03/27 04:39:41;;;;;;;13.02;6.40;;;;;;;5.21;80.13;97307.09;5053290;28;20059;-62
2023/03/27 04:42:09;;;;;;;20.75;7.07;;;;;;;5.14;79.38;97310.97;5071001;28;20059;-62
2023/03/27 04:44:36;;;;;;;29.25;8.70;;;;;;;5.05;80.15;97313.28;5069244;28;20532;-65
2023/03/27 04:47:03;;;;;;;17.75;8.27;;;;;;;4.94;80.65;97317.69;5052911;28;20498;-62
2023/03/27 04:49:29;;;;;;;21.02;8.65;;;;;;;4.99;81.40;97309.81;5053163;28;20048;-64
2023/03/27 04:52:00;;;;;;;20.17;8.68;;;;;;;4.95;80.37;97303.50;5069750;28;20135;-63
2023/03/27 04:54:30;;;;;;;21.35;9.10;;;;;;;4.96;80.47;97305.06;5053065;28;20506;-64
2023/03/27 04:56:56;;;;;;;27.45;14.73;;;;;;;5.08;80.72;97304.13;5070867;28;20044;-61
2023/03/27 04:59:22;;;;;;;24.48;11.38;;;;;;;5.16;80.15;97295.75;5069021;28;20090;-64
2023/03/27 05:02:07;;;;;;;25.98;9.73;;;;;;;5.27;80.33;97300.03;5069920;28;20044;-62
2023/03/27 05:04:43;;;;;;;19.00;8.55;;;;;;;5.32;79.76;97302.69;5053935;28;20040;-62
2023/03/27 05:07:15;;;;;;;23.25;9.77;;;;;;;5.31;80.33;97295.06;5052933;28;20044;-61
2023/03/27 05:09:41;;;;;;;20.67;9.30;;;;;;;5.36;80.60;97302.97;5074718;28;20398;-65
2023/03/27 05:12:07;;;;;;;22.60;9.77;;;;;;;5.37;80.54;97294.84;5073012;28;20049;-64
2023/03/27 05:14:40;;;;;;;23.30;11.18;;;;;;;5.43;79.48;97304.31;5055400;28;20057;-63
2023/03/27 05:17:15;;;;;;;24.23;11.30;;;;;;;5.48;80.61;97303.56;5071897;28;20586;-64
2023/03/27 05:19:44;;;;;;;23.95;11.75;;;;;;;5.50;79.70;97304.13;5072444;28;20049;-62
2023/03/27 05:22:11;;;;;;;20.92;9.05;;;;;;;5.54;79.79;97317.53;5037635;28;20040;-63
2023/03/27 05:24:46;;;;;;;22.80;9.77;;;;;;;5.59;79.75;97325.41;5050907;28;20551;-65
2023/03/27 05:27:12;;;;;;;19.98;9.85;;;;;;;5.62;79.92;97325.72;5050663;28;20052;-67
2023/03/27 05:29:42;;;;;;;19.70;8.63;;;;;;;5.64;79.37;97328.06;5036293;28;20067;-66
2023/03/27 05:32:08;;;;;;;19.92;8.43;;;;;;;5.65;78.84;97319.16;5070430;28;20509;-64
2023/03/27 05:34:44;;;;;;;18.92;7.78;;;;;;;5.60;78.63;97319.91;5070704;28;20043;-64
2023/03/27 05:37:15;;;;;;;20.10;9.57;;;;;;;5.69;79.47;97323.63;5071529;28;20040;-65
2023/03/27 05:40:07;;;;;;;19.00;7.93;;;;;;;5.70;80.13;97327.06;5071703;28;20089;-63
2023/03/27 05:42:32;;;;;;;16.05;7.72;;;;;;;5.82;79.31;97322.38;5038695;28;20124;-63
2023/03/27 05:44:58;;;;;;;18.10;8.52;;;;;;;5.96;79.59;97312.22;5072479;28;20127;-66
2023/03/27 05:47:24;;;;;;;17.30;7.70;;;;;;;6.01;78.70;97314.84;5074034;28;20053;-61
2023/03/27 05:49:52;;;;;;;18.42;8.13;;;;;;;6.07;79.06;97311.19;5072560;28;20658;-62
2023/03/27 05:52:18;;;;;;;20.73;8.77;;;;;;;6.13;77.75;97312.78;5055673;28;20056;-62
2023/03/27 05:54:44;;;;;;;19.10;7.88;;;;;;;5.98;78.10;97293.56;5055837;28;20059;-62
2023/03/27 05:57:11;;;;;;;14.98;7.68;;;;;;;5.96;77.89;97316.69;5072443;28;20129;-61
2023/03/27 05:59:39;;;;;;;14.55;7.50;;;;;;;5.91;78.75;97323.47;5038925;28;20042;-61
2023/03/27 06:02:17;;;;;;;17.23;7.93;;;;;;;5.79;79.01;97317.63;5055658;28;20044;-61
2023/03/27 06:04:51;;;;;;;16.63;7.25;;;;;;;5.80;79.73;97318.44;5054443;28;20044;-60
2023/03/27 06:07:26;;;;;;;16.35;7.85;;;;;;;5.77;79.18;97321.59;5037939;28;20040;-61
2023/03/27 06:09:53;;;;;;;17.73;8.80;;;;;;;5.90;79.74;97327.13;5069271;28;20044;-62
2023/03/27 06:12:33;;;;;;;23.25;8.07;;;;;;;5.96;79.59;97324.56;5070310;28;20541;-60
2023/03/27 06:15:20;;;;;;;25.95;8.95;;;;;;;6.03;79.58;97325.09;5069746;28;20044;-62
2023/03/27 06:18:15;;;;;;;21.02;8.73;;;;;;;6.04;80.39;97343.28;5057641;28;20044;-62
2023/03/27 06:20:41;;;;;;;16.38;8.88;;;;;;;6.13;80.33;97338.31;5067359;28;20063;-62
2023/03/27 06:23:08;;;;;;;22.38;8.45;;;;;;;6.23;80.57;97345.44;5035988;28;20051;-62
2023/03/27 06:25:37;;;;;;;21.42;8.70;;;;;;;6.29;79.81;97341.75;5051493;28;20039;-62
2023/03/27 06:28:06;;;;;;;21.27;8.73;;;;;;;6.35;79.50;97343.34;5051677;28;20032;-62
2023/03/27 06:30:39;;;;;;;16.73;8.30;;;;;;;6.29;78.91;97342.53;5051986;28;20060;-63
2023/03/27 06:33:38;;;;;;;16.50;7.72;;;;;;;6.32;78.76;97341.25;5051937;28;20048;-63
2023/03/27 06:36:07;;;;;;;17.30;7.57;;;;;;;6.30;79.44;97340.72;5053299;28;20043;-63
2023/03/27 06:38:36;;;;;;;16.15;7.82;;;;;;;6.34;79.37;97336.53;5068646;28;20402;-63
2023/03/27 06:41:03;;;;;;;17.95;7.70;;;;;;;6.45;78.75;97340.75;5070617;28;20520;-63
2023/03/27 06:43:55;;;;;;;16.02;7.40;;;;;;;6.41;78.78;97334.41;5041462;28;20047;-63
2023/03/27 06:46:33;;;;;;;15.85;8.13;;;;;;;6.41;78.90;97331.00;5065494;28;20072;-60
2023/03/27 06:49:17;;;;;;;19.35;8.50;;;;;;;6.43;79.78;97336.81;5052361;28;20048;-60
2023/03/27 06:51:43;;;;;;;16.80;8.50;;;;;;;6.66;78.84;97333.69;5047034;28;20037;-64
2023/03/27 06:54:12;;;;;;;20.15;7.90;;;;;;;6.81;78.03;97336.31;5064752;28;20501;-62
2023/03/27 06:56:43;;;;;;;18.88;8.90;;;;;;;6.97;77.20;97341.56;5032525;28;20072;-63
2023/03/27 06:59:19;;;;;;;16.33;8.07;;;;;;;7.17;76.29;97348.69;5066894;28;20106;-63
2023/03/27 07:01:51;;;;;;;17.60;8.35;;;;;;;7.41;76.40;97338.38;5066513;28;20103;-61
2023/03/27 07:04:34;;;;;;;18.17;8.75;;;;;;;7.47;75.52;97348.66;5067326;28;20056;-63
2023/03/27 07:07:12;;;;;;;16.10;9.07;;;;;;;7.64;74.68;97344.91;5067196;28;20052;-62
2023/03/27 07:09:41;;;;;;;16.63;8.38;;;;;;;7.64;73.82;97343.06;5033331;28;20086;-61
2023/03/27 07:12:08;;;;;;;16.92;8.43;;;;;;;7.83;74.33;97348.56;5049978;28;20047;-61
2023/03/27 07:14:35;;;;;;;15.45;8.88;;;;;;;7.92;72.84;97354.88;5067522;28;20064;-62
2023/03/27 07:17:01;;;;;;;18.02;9.02;;;;;;;8.10;72.97;97357.97;5067169;28;20133;-62
2023/03/27 07:19:41;;;;;;;18.75;8.90;;;;;;;8.25;72.35;97355.25;5070086;28;20127;-62
2023/03/27 07:22:10;;;;;;;14.25;8.48;;;;;;;8.39;72.22;97355.47;5052982;28;20072;-62
2023/03/27 07:24:36;;;;;;;17.42;8.32;;;;;;;8.30;71.52;97365.00;5069742;28;20075;-64
2023/03/27 07:27:03;;;;;;;18.48;8.93;;;;;;;8.19;72.37;97351.84;5052574;28;20094;-64
2023/03/27 07:29:31;;;;;;;19.45;9.38;;;;;;;8.13;72.45;97360.06;5068205;28;20062;-64
2023/03/27 07:31:58;;;;;;;18.17;9.60;;;;;;;8.24;72.41;97358.16;5068207;28;20395;-62
2023/03/27 07:34:46;;;;;;;19.92;9.25;;;;;;;8.29;71.34;97355.50;5050654;28;20045;-61
2023/03/27 07:37:15;;;;;;;18.90;9.80;;;;;;;8.33;72.14;97364.47;5048837;28;20060;-62
2023/03/27 07:40:08;;;;;;;14.43;8.52;;;;;;;8.52;70.27;97356.72;5050253;28;20053;-63
2023/03/27 07:42:35;;;;;;;21.55;10.65;;;;;;;8.37;70.87;97357.56;5033106;28;20147;-62
2023/03/27 07:45:04;;;;;;;21.10;10.77;;;;;;;8.33;70.50;97352.03;5050243;28;20422;-63
2023/03/27 07:47:31;;;;;;;15.90;9.63;;;;;;;8.44;70.79;97352.78;5050314;28;20056;-62
2023/03/27 07:49:58;;;;;;;16.02;8.73;;;;;;;8.74;70.60;97348.41;5065495;28;20044;-63
2023/03/27 07:52:24;;;;;;;20.85;10.00;;;;;;;9.00;70.64;97349.78;5019459;28;20138;-62
2023/03/27 07:54:59;;;;;;;17.08;9.10;;;;;;;9.19;70.23;97349.88;5068619;28;20090;-61
2023/03/27 07:57:38;;;;;;;15.70;9.13;;;;;;;9.25;68.51;97354.06;5045631;28;20110;-62
2023/03/27 08:00:11;;;;;;;17.83;9.45;;;;;;;9.20;68.19;97346.16;5068034;28;20043;-62
2023/03/27 08:02:45;;;;;;;15.80;9.07;;;;;;;9.28;69.16;97353.50;5067237;28;20070;-61
2023/03/27 08:05:12;;;;;;;17.23;9.48;;;;;;;9.38;68.32;97355.25;5068642;28;20102;-62
2023/03/27 08:07:44;;;;;;;12.98;8.40;;;;;;;9.41;67.65;97354.72;5069926;28;20048;-62
2023/03/27 08:10:11;;;;;;;17.83;9.18;;;;;;;9.12;67.82;97356.53;5052917;28;20074;-60
2023/03/27 08:12:51;;;;;;;17.38;9.30;;;;;;;9.38;68.47;97357.13;5069178;28;20078;-61
2023/03/27 08:15:17;;;;;;;17.77;9.25;;;;;;;9.60;66.95;97354.78;5052700;28;20517;-63
2023/03/27 08:17:44;;;;;;;13.45;8.13;;;;;;;9.75;67.39;97351.97;5035991;28;20076;-63
2023/03/27 08:20:13;;;;;;;12.88;9.02;;;;;;;9.77;67.03;97349.84;5053208;28;20055;-61
2023/03/27 08:22:44;;;;;;;14.00;8.73;;;;;;;9.92;66.66;97350.75;5069468;28;20070;-62
2023/03/27 08:25:31;;;;;;;14.93;8.60;;;;;;;9.77;66.52;97360.44;5070105;28;20045;-63
2023/03/27 08:28:03;;;;;;;13.77;8.65;;;;;;;9.77;66.03;97360.44;5037532;28;20048;-61
2023/03/27 08:30:30;;;;;;;16.80;8.50;;;;;;;10.06;66.23;97356.94;5068392;28;20082;-61
2023/03/27 08:32:59;;;;;;;13.45;8.60;;;;;;;10.41;64.36;97349.63;5052787;28;20047;-63
2023/03/27 08:35:25;;;;;;;11.07;7.50;;;;;;;10.30;63.40;97364.09;5068835;28;20041;-62
2023/03/27 08:37:51;;;;;;;11.80;7.80;;;;;;;10.34;64.12;97357.91;5068565;28;20048;-64
2023/03/27 08:40:32;;;;;;;14.38;8.38;;;;;;;10.60;63.67;97362.88;5070676;28;20145;-60
2023/03/27 08:43:40;;;;;;;13.88;8.65;;;;;;;10.39;64.00;97355.22;5060192;28;20421;-62
2023/03/27 08:46:27;;;;;;;14.18;8.77;;;;;;;10.18;64.64;97359.19;5073644;28;20132;-62
2023/03/27 08:49:01;;;;;;;12.82;7.93;;;;;;;10.31;63.57;97360.34;5070931;28;20084;-63
2023/03/27 08:52:00;;;;;;;11.93;7.80;;;;;;;10.39;62.85;97360.50;5039060;28;20076;-63
2023/03/27 08:54:34;;;;;;;13.13;8.07;;;;;;;10.31;62.82;97360.34;5072943;28;20139;-63
2023/03/27 08:57:00;;;;;;;11.45;7.15;;;;;;;10.14;64.03;97361.59;5073039;28;20068;-60
2023/03/27 08:59:30;;;;;;;10.50;7.32;;;;;;;10.35;63.42;97364.00;5056104;28;20088;-63
2023/03/27 09:02:16;;;;;;;11.77;7.97;;;;;;;10.38;63.07;97368.72;5072784;28;20048;-63
2023/03/27 09:04:42;;;;;;;11.15;7.32;;;;;;;10.26;63.12;97374.41;5073150;28;20059;-62
2023/03/27 09:07:16;;;;;;;10.23;7.55;;;;;;;10.36;63.24;97374.31;5072378;28;20488;-63
2023/03/27 09:10:16;;;;;;;11.75;7.72;;;;;;;10.42;63.27;97375.03;5073456;28;20064;-62
2023/03/27 09:13:10;;;;;;;9.00;6.75;;;;;;;10.48;62.80;97368.59;5056645;28;20597;-62
2023/03/27 09:15:44;;;;;;;11.93;7.55;;;;;;;10.87;61.52;97370.16;5038276;28;20049;-63
2023/03/27 09:18:29;;;;;;;8.45;5.90;;;;;;;10.96;59.91;97373.75;5073062;28;20048;-64
2023/03/27 09:21:10;;;;;;;8.85;5.95;;;;;;;10.98;60.27;97371.59;5022605;28;20617;-61
2023/03/27 09:23:42;;;;;;;8.93;5.75;;;;;;;10.94;59.65;97380.41;5053710;28;20512;-62
2023/03/27 09:26:40;;;;;;;7.85;5.72;;;;;;;10.36;60.77;97378.84;5073537;28;20078;-62
2023/03/27 09:29:30;;;;;;;6.97;5.10;;;;;;;10.45;61.88;97379.78;5073151;28;20055;-63
2023/03/27 09:32:22;;;;;;;7.53;5.35;;;;;;;10.67;61.80;97384.50;5064416;28;20060;-62
2023/03/27 09:34:48;;;;;;;6.95;5.50;;;;;;;10.70;61.85;97386.56;5071712;28;20037;-64
2023/03/27 09:37:15;;;;;;;8.80;5.65;;;;;;;10.80;61.50;97380.34;5053734;28;20041;-62
2023/03/27 09:39:45;;;;;;;8.93;5.78;;;;;;;10.71;61.33;97393.47;5055358;28;20053;-62
2023/03/27 09:42:35;;;;;;;7.13;5.95;;;;;;;10.59;61.09;97393.91;5057059;28;20056;-62
2023/03/27 09:45:03;;;;;;;7.10;5.07;;;;;;;10.61;61.36;97398.88;5054950;28;20040;-62
2023/03/27 09:47:48;;;;;;;7.30;5.20;;;;;;;10.41;62.76;97410.53;5055189;28;20490;-62
2023/03/27 09:50:30;;;;;;;7.57;4.80;;;;;;;10.26;62.68;97416.00;5053537;28;20403;-60
2023/03/27 09:53:11;;;;;;;6.68;5.00;;;;;;;10.23;62.47;97415.50;5053512;28;20051;-62
2023/03/27 09:55:51;;;;;;;6.85;5.32;;;;;;;10.22;62.34;97421.84;5049709;28;20041;-62
2023/03/27 09:58:29;;;;;;;7.63;5.63;;;;;;;10.27;63.00;97428.22;5050915;28;20094;-64
2023/03/27 10:01:14;;;;;;;7.60;5.43;;;;;;;10.19;61.93;97422.41;5051427;28;20118;-62
2023/03/27 10:03:48;;;;;;;6.90;4.80;;;;;;;9.98;62.09;97423.72;5052020;28;20139;-63
2023/03/27 10:06:51;;;;;;;7.07;4.95;;;;;;;10.17;63.24;97423.78;5052105;28;20044;-62
2023/03/27 10:09:25;;;;;;;6.63;4.55;;;;;;;10.27;62.42;97426.34;5013103;28;20161;-62
2023/03/27 10:12:06;;;;;;;6.53;4.30;;;;;;;10.54;62.22;97423.09;5044358;28;20076;-62
2023/03/27 10:14:41;;;;;;;6.53;4.55;;;;;;;10.84;61.03;97426.41;5050024;28;20053;-62
2023/03/27 10:17:21;;;;;;;5.50;4.30;;;;;;;10.84;59.66;97429.06;5062555;28;20127;-64
2023/03/27 10:20:07;;;;;;;5.93;4.63;;;;;;;10.76;60.29;97422.53;5053487;28;20048;-61
2023/03/27 10:22:41;;;;;;;7.10;4.78;;;;;;;10.62;61.08;97427.75;5052395;28;20461;-61
2023/03/27 10:25:28;;;;;;;5.50;4.18;;;;;;;10.51;60.56;97430.81;5067264;28;20040;-64
2023/03/27 10:28:25;;;;;;;6.65;4.47;;;;;;;10.60;60.94;97437.06;5068438;28;20064;-64
2023/03/27 10:31:31;;;;;;;;;;;;;;;10.78;61.47;97431.00;5055931;28;20036;-63
2023/03/27 10:34:27;;;;;;;5.03;3.88;;;;;;;10.80;60.50;97436.00;5067867;28;20474;-62
2023/03/27 10:37:26;;;;;;;6.15;3.78;;;;;;;10.54;60.56;97435.56;5069660;28;20072;-63
2023/03/27 10:40:06;;;;;;;6.15;4.32;;;;;;;10.76;61.02;97433.13;5050883;28;20053;-63
2023/03/27 10:42:36;;;;;;;6.72;4.20;;;;;;;10.94;60.54;97444.81;5067448;28;20610;-64
2023/03/27 10:45:03;;;;;;;5.28;4.13;;;;;;;10.97;60.71;97436.31;5051731;28;20041;-63
2023/03/27 10:47:31;;;;;;;5.18;3.95;;;;;;;11.21;60.37;97436.22;5052116;28;20037;-64
2023/03/27 10:50:04;;;;;;;5.90;4.10;;;;;;;11.37;59.50;97444.72;5068417;28;20052;-63
2023/03/27 10:53:02;;;;;;;6.18;4.25;;;;;;;11.50;59.44;97443.16;5053088;28;20052;-62
2023/03/27 10:56:18;;;;;;;4.80;3.90;;;;;;;11.37;59.51;97432.22;5067642;28;20052;-64
2023/03/27 10:58:57;;;;;;;4.07;3.67;;;;;;;11.33;59.75;97441.84;5059128;28;20048;-64
2023/03/27 11:01:33;;;;;;;8.13;4.10;;;;;;;11.26;60.17;97444.06;5068415;28;20497;-63
2023/03/27 11:04:14;;;;;;;4.93;4.03;;;;;;;11.29;60.67;97442.69;5068406;28;20087;-63
2023/03/27 11:06:48;;;;;;;5.07;4.53;;;;;;;11.31;60.43;97446.66;5049581;28;20078;-65
2023/03/27 11:09:35;;;;;;;4.55;3.72;;;;;;;11.31;60.79;97456.47;5068248;28;20122;-64
2023/03/27 11:12:13;;;;;;;5.78;4.47;;;;;;;11.39;60.89;97452.38;5051264;28;20102;-65
2023/03/27 11:15:10;;;;;;;7.63;4.57;;;;;;;11.17;60.53;97460.94;5050997;28;20071;-64
2023/03/27 11:17:45;;;;;;;4.82;3.92;;;;;;;11.04;60.52;97452.63;5052659;28;20505;-65
2023/03/27 11:20:32;;;;;;;4.20;3.60;;;;;;;11.23;60.98;97457.13;5069790;28;20040;-65
2023/03/27 11:23:12;;;;;;;6.17;4.10;;;;;;;11.39;60.67;97452.38;5033964;28;20040;-66
2023/03/27 11:26:04;;;;;;;6.00;3.92;;;;;;;11.41;60.61;97455.53;5071039;28;20114;-65
2023/03/27 11:29:00;;;;;;;5.18;4.28;;;;;;;11.45;60.33;97448.56;5069686;28;20135;-64
2023/03/27 11:31:44;;;;;;;6.15;4.10;;;;;;;11.49;60.04;97462.81;5054101;28;20059;-65
2023/03/27 11:34:20;;;;;;;5.57;4.20;;;;;;;11.50;59.86;97457.25;5052797;28;20044;-64
2023/03/27 11:37:00;;;;;;;3.92;3.50;;;;;;;11.57;60.34;97464.81;5068417;28;20121;-65
2023/03/27 11:39:44;;;;;;;5.90;4.28;;;;;;;11.60;60.20;97462.38;5053596;28;20498;-64
2023/03/27 11:42:16;;;;;;;9.90;3.78;;;;;;;11.41;59.19;97461.59;5053001;28;20051;-65
2023/03/27 11:44:42;;;;;;;7.72;5.03;;;;;;;11.30;61.29;97463.66;5071235;28;20045;-65
2023/03/27 11:47:21;;;;;;;6.43;4.50;;;;;;;11.23;60.55;97463.22;5071492;28;20044;-63
2023/03/27 11:50:15;;;;;;;6.07;4.35;;;;;;;11.07;61.23;97470.59;5070238;28;20063;-63
2023/03/27 11:52:51;;;;;;;5.20;3.92;;;;;;;10.87;61.91;97468.25;5068502;28;20044;-64
2023/03/27 11:55:37;;;;;;;8.90;4.63;;;;;;;10.57;68.11;97464.91;5069269;28;20049;-62
2023/03/27 11:58:40;;;;;;;5.32;4.57;;;;;;;10.29;70.59;97469.19;5069234;28;20178;-64
2023/03/27 12:01:22;;;;;;;6.22;4.45;;;;;;;10.13;69.66;97484.44;5069940;28;20512;-66
2023/03/27 12:04:23;;;;;;;5.45;4.43;;;;;;;9.78;69.05;97485.56;5053102;28;20101;-66
2023/03/27 12:07:39;;;;;;;7.28;4.28;;;;;;;9.90;70.73;97491.28;5067562;28;20501;-66
2023/03/27 12:10:15;;;;;;;6.07;4.85;;;;;;;9.98;69.00;97495.19;5052164;28;20048;-64
2023/03/27 12:13:20;;;;;;;6.05;4.43;;;;;;;9.85;68.35;97491.31;5067609;28;20067;-65
2023/03/27 12:16:11;;;;;;;6.35;4.13;;;;;;;9.80;68.24;97498.53;5068900;28;20043;-67